Time;durP1;ratioP1;P1;durP2;ratioP2;P2;SDS_P1;SDS_P2;PMS_P1;PMS_P2;Temp;Humidity;BMP_temperature;BMP_pressure;BME280_temperature;BME280_humidity;BME280_pressure;Samples;Min_cycle;Max_cycle;Signal;HPM_P1;HPM_P2
2023/10/01 00:00:36;;;;;;;0.20;0.20;;;;;;;10.59;100.00;102272.41;5112130;28;20352;-42
2023/10/01 00:03:05;;;;;;;0.10;0.10;;;;;;;10.58;100.00;102269.75;5113213;28;20035;-42
2023/10/01 00:05:30;;;;;;;0.20;0.20;;;;;;;10.56;100.00;102273.94;5112698;28;20012;-42
2023/10/01 00:07:55;;;;;;;0.10;0.10;;;;;;;10.57;100.00;102275.72;5112508;28;20030;-43
2023/10/01 00:10:22;;;;;;;0.20;0.20;;;;;;;10.58;100.00;102278.38;5112912;28;20498;-42
2023/10/01 00:12:50;;;;;;;0.10;0.10;;;;;;;10.58;100.00;102269.75;5113184;28;20076;-41
2023/10/01 00:15:18;;;;;;;0.20;0.20;;;;;;;10.59;100.00;102271.50;5112056;28;20129;-42
2023/10/01 00:17:48;;;;;;;;;;;;;;;10.68;100.00;102272.88;5113349;28;20028;-41
2023/10/01 00:20:22;;;;;;;0.10;0.10;;;;;;;10.72;100.00;102273.94;5112632;28;19912;-44
2023/10/01 00:22:50;;;;;;;0.20;0.20;;;;;;;10.76;100.00;102275.88;5115771;28;20382;-41
2023/10/01 00:25:17;;;;;;;0.10;0.10;;;;;;;10.82;100.00;102280.44;5116702;28;20463;-41
2023/10/01 00:27:43;;;;;;;0.20;0.20;;;;;;;10.90;100.00;102284.31;5117075;28;20066;-44
2023/10/01 00:30:10;;;;;;;0.17;0.17;;;;;;;10.94;100.00;102280.22;5116256;28;20063;-42
2023/10/01 00:32:39;;;;;;;0.10;0.10;;;;;;;11.00;100.00;102275.34;5116521;28;20348;-43
2023/10/01 00:35:06;;;;;;;0.10;0.10;;;;;;;11.03;100.00;102270.34;5116205;28;20042;-44
2023/10/01 00:37:33;;;;;;;0.13;0.13;;;;;;;11.11;100.00;102269.03;5116632;28;20084;-44
2023/10/01 00:39:59;;;;;;;0.10;0.10;;;;;;;11.14;100.00;102266.63;5116794;28;20098;-44
2023/10/01 00:42:28;;;;;;;0.20;0.20;;;;;;;11.16;100.00;102264.13;5115581;28;20382;-43
2023/10/01 00:44:54;;;;;;;0.10;0.10;;;;;;;11.18;100.00;102265.06;5116672;28;20103;-42
2023/10/01 00:47:21;;;;;;;0.10;0.10;;;;;;;11.15;100.00;102263.22;5116375;28;20069;-44
2023/10/01 00:49:47;;;;;;;0.20;0.20;;;;;;;11.19;100.00;102264.25;5116358;28;20024;-42
2023/10/01 00:52:20;;;;;;;0.20;0.20;;;;;;;11.16;100.00;102256.38;5116448;28;20020;-44
2023/10/01 00:54:46;;;;;;;0.20;0.20;;;;;;;11.18;100.00;102247.00;5116402;28;20043;-43
2023/10/01 00:57:15;;;;;;;0.20;0.20;;;;;;;11.14;100.00;102247.66;5115164;28;20043;-40
2023/10/01 00:59:43;;;;;;;0.20;0.20;;;;;;;11.16;100.00;102251.22;5116288;28;20482;-42
2023/10/01 01:02:09;;;;;;;;;;;;;;;11.22;100.00;102242.88;5117019;28;20074;-42
2023/10/01 01:04:42;;;;;;;0.10;0.10;;;;;;;11.14;100.00;102238.25;5115442;28;20342;-45
2023/10/01 01:07:14;;;;;;;0.20;0.20;;;;;;;11.12;100.00;102234.69;5116314;28;20027;-44
2023/10/01 01:09:42;;;;;;;0.10;0.10;;;;;;;11.13;100.00;102236.47;5116261;28;20040;-44
2023/10/01 01:12:08;;;;;;;0.10;0.10;;;;;;;11.10;100.00;102236.28;5115258;28;20030;-41
2023/10/01 01:14:35;;;;;;;0.15;0.15;;;;;;;11.07;100.00;102231.00;5115778;28;20371;-44
2023/10/01 01:17:00;;;;;;;0.20;0.20;;;;;;;11.04;100.00;102225.69;5116010;28;20455;-41
2023/10/01 01:19:26;;;;;;;0.10;0.10;;;;;;;11.03;100.00;102231.66;5115138;28;20034;-43
2023/10/01 01:21:52;;;;;;;0.10;0.10;;;;;;;11.00;100.00;102224.66;5116162;28;20026;-42
2023/10/01 01:24:18;;;;;;;0.10;0.10;;;;;;;10.94;100.00;102224.34;5114834;28;20496;-43
2023/10/01 01:26:44;;;;;;;0.10;0.10;;;;;;;10.97;100.00;102228.75;5115828;28;20035;-45
2023/10/01 01:29:29;;;;;;;0.20;0.20;;;;;;;11.01;100.00;102233.25;5115899;28;20371;-42
2023/10/01 01:32:06;;;;;;;0.10;0.10;;;;;;;10.89;100.00;102235.25;5114615;28;20016;-43
2023/10/01 01:34:36;;;;;;;0.20;0.20;;;;;;;10.84;100.00;102232.41;5115539;28;20023;-44
2023/10/01 01:37:07;;;;;;;0.20;0.20;;;;;;;10.82;100.00;102224.59;5115674;28;20028;-41
2023/10/01 01:39:51;;;;;;;0.20;0.20;;;;;;;10.74;100.00;102217.28;5114751;28;20024;-43
2023/10/01 01:42:21;;;;;;;0.20;0.20;;;;;;;10.71;100.00;102215.44;5115160;28;20383;-46
2023/10/01 01:45:15;;;;;;;0.10;0.10;;;;;;;10.62;100.00;102225.28;5115640;28;20023;-43
2023/10/01 01:47:36;;;;;;;0.10;0.10;;;;;;;10.63;100.00;102216.75;5114137;28;20086;-46
2023/10/01 01:50:17;;;;;;;0.20;0.20;;;;;;;10.58;100.00;102213.03;5115630;28;20043;-41
2023/10/01 01:52:44;;;;;;;0.20;0.20;;;;;;;10.60;100.00;102214.00;5114744;28;20024;-45
2023/10/01 01:55:23;;;;;;;0.10;0.10;;;;;;;10.57;100.00;102209.56;5115222;28;20379;-46
2023/10/01 01:58:02;;;;;;;0.20;0.20;;;;;;;10.49;100.00;102209.16;5114992;28;20070;-44
2023/10/01 02:00:31;;;;;;;0.20;0.20;;;;;;;10.63;100.00;102203.84;5114275;28;20041;-45
2023/10/01 02:02:59;;;;;;;0.15;0.15;;;;;;;10.60;100.00;102211.41;5115207;28;20012;-42
2023/10/01 02:05:28;;;;;;;0.20;0.20;;;;;;;10.55;100.00;102213.78;5114997;28;20042;-41
2023/10/01 02:07:54;;;;;;;0.20;0.20;;;;;;;10.58;100.00;102206.19;5114027;28;20471;-41
2023/10/01 02:10:20;;;;;;;0.13;0.13;;;;;;;10.60;100.00;102195.94;5114990;28;20026;-44
2023/10/01 02:12:47;;;;;;;0.20;0.20;;;;;;;10.61;100.00;102203.75;5114961;28;20378;-42
2023/10/01 02:15:13;;;;;;;0.20;0.20;;;;;;;10.59;100.00;102209.63;5113993;28;20019;-41
2023/10/01 02:17:39;;;;;;;0.13;0.13;;;;;;;10.64;100.00;102203.03;5115054;28;20035;-42
2023/10/01 02:20:11;;;;;;;0.20;0.20;;;;;;;10.59;100.00;102194.16;5114938;28;20030;-43
2023/10/01 02:22:36;;;;;;;0.20;0.20;;;;;;;10.58;100.00;102195.88;5114043;28;20100;-43
2023/10/01 02:25:04;;;;;;;0.20;0.20;;;;;;;10.62;100.00;102194.34;5114686;28;20371;-42
2023/10/01 02:27:29;;;;;;;0.20;0.20;;;;;;;10.61;100.00;102193.44;5114008;28;20038;-41
2023/10/01 02:32:49;;;;;;;0.10;0.10;;;;;;;10.61;100.00;102188.28;5115078;28;20485;-42
2023/10/01 02:35:34;;;;;;;0.20;0.20;;;;;;;10.62;100.00;102189.19;5113327;28;20455;-42
2023/10/01 02:38:05;;;;;;;0.20;0.20;;;;;;;10.57;100.00;102185.47;5114469;28;20483;-43
2023/10/01 02:40:36;;;;;;;0.13;0.13;;;;;;;10.59;100.00;102191.59;5114406;28;20635;-43
2023/10/01 02:43:08;;;;;;;0.10;0.10;;;;;;;10.49;100.00;102188.53;5113576;28;20046;-42
2023/10/01 02:45:35;;;;;;;0.20;0.20;;;;;;;10.47;100.00;102202.16;5113605;28;20012;-42
2023/10/01 02:48:18;;;;;;;0.20;0.20;;;;;;;10.30;100.00;102194.44;5114128;28;20084;-41
2023/10/01 02:50:51;;;;;;;0.10;0.10;;;;;;;10.35;100.00;102203.31;5113637;28;20069;-41
2023/10/01 02:53:20;;;;;;;0.10;0.10;;;;;;;10.28;100.00;102202.88;5113928;28;20028;-46
2023/10/01 02:55:47;;;;;;;0.20;0.20;;;;;;;10.27;100.00;102199.41;5113364;28;20028;-40
2023/10/01 02:58:27;;;;;;;0.20;0.20;;;;;;;10.26;100.00;102201.91;5113704;28;20079;-42
2023/10/01 03:00:53;;;;;;;0.20;0.20;;;;;;;10.20;100.00;102207.63;5114037;28;20552;-43
2023/10/01 03:03:31;;;;;;;0.20;0.20;;;;;;;10.18;100.00;102199.78;5112791;28;20550;-41
2023/10/01 03:05:56;;;;;;;0.20;0.20;;;;;;;10.22;100.00;102190.53;5114126;28;20019;-45
2023/10/01 03:11:06;;;;;;;0.20;0.20;;;;;;;10.31;100.00;102187.56;5113524;28;20042;-44
2023/10/01 03:13:32;;;;;;;0.20;0.20;;;;;;;10.24;100.00;102190.63;5113643;28;20016;-42
2023/10/01 03:18:44;;;;;;;0.20;0.20;;;;;;;10.24;100.00;102180.31;5113221;28;20038;-42
2023/10/01 03:22:12;;;;;;;0.17;0.17;;;;;;;10.22;100.00;102182.81;5113662;28;20035;-45
2023/10/01 03:24:02;;;;;;;0.20;0.20;;;;;;;10.25;100.00;102180.41;5112685;28;20455;-41
2023/10/01 03:26:32;;;;;;;0.20;0.20;;;;;;;10.33;100.00;102180.81;5113398;28;20098;-42
2023/10/01 03:29:15;;;;;;;0.20;0.20;;;;;;;10.36;100.00;102187.03;5113746;28;20023;-45
2023/10/01 03:31:43;;;;;;;0.20;0.20;;;;;;;10.43;100.00;102189.94;5112669;28;20386;-44
2023/10/01 03:34:10;;;;;;;0.20;0.20;;;;;;;10.48;100.00;102186.81;5113702;28;20642;-46
2023/10/01 03:36:42;;;;;;;0.20;0.20;;;;;;;10.48;100.00;102179.06;5113103;28;20019;-44
2023/10/01 03:39:25;;;;;;;0.20;0.20;;;;;;;10.56;100.00;102181.13;5112750;28;20033;-40
2023/10/01 03:42:02;;;;;;;0.20;0.20;;;;;;;10.60;100.00;102177.91;5113344;28;20028;-42
2023/10/01 03:45:19;;;;;;;0.20;0.20;;;;;;;10.63;100.00;102171.22;5113026;28;20039;-45
2023/10/01 03:47:29;;;;;;;0.20;0.20;;;;;;;10.66;100.00;102180.78;5112784;28;20050;-41
2023/10/01 03:49:55;;;;;;;0.20;0.20;;;;;;;10.65;100.00;102177.34;5113470;28;20039;-42
2023/10/01 03:52:21;;;;;;;0.20;0.20;;;;;;;10.74;100.00;102181.19;5112183;28;20390;-41
2023/10/01 03:55:00;;;;;;;0.20;0.20;;;;;;;10.76;100.00;102177.88;5112929;28;20019;-42
2023/10/01 03:57:29;;;;;;;0.20;0.20;;;;;;;10.77;100.00;102177.06;5112737;28;20048;-42
2023/10/01 03:59:57;;;;;;;0.20;0.20;;;;;;;10.80;100.00;102178.91;5112339;28;20463;-43
2023/10/01 04:05:21;;;;;;;0.20;0.20;;;;;;;10.83;100.00;102187.69;5113176;28;20092;-41
2023/10/01 04:07:47;;;;;;;0.17;0.17;;;;;;;10.87;100.00;102181.88;5112388;28;20063;-41
2023/10/01 04:10:21;;;;;;;0.20;0.20;;;;;;;10.91;100.00;102176.84;5112681;28;20554;-41
2023/10/01 04:12:58;;;;;;;0.20;0.20;;;;;;;10.93;100.00;102180.41;5113130;28;20020;-43
2023/10/01 04:15:29;;;;;;;0.20;0.20;;;;;;;10.92;100.00;102176.94;5112059;28;20047;-42
2023/10/01 04:20:39;;;;;;;0.20;0.20;;;;;;;10.99;100.00;102183.31;5112260;28;20097;-42
2023/10/01 04:23:05;;;;;;;0.20;0.20;;;;;;;10.98;100.00;102174.66;5112967;28;20024;-40
2023/10/01 04:25:38;;;;;;;0.20;0.20;;;;;;;10.99;100.00;102175.56;5112670;28;20050;-42
2023/10/01 04:28:08;;;;;;;0.10;0.10;;;;;;;11.01;100.00;102169.66;5111918;28;20107;-42
2023/10/01 04:30:34;;;;;;;0.20;0.20;;;;;;;11.01;100.00;102174.81;5112818;28;20035;-40
2023/10/01 04:33:16;;;;;;;0.20;0.20;;;;;;;11.03;100.00;102173.19;5113053;28;20015;-43
2023/10/01 04:35:51;;;;;;;0.20;0.20;;;;;;;11.02;100.00;102170.53;5112229;28;20091;-41
2023/10/01 04:38:20;;;;;;;0.20;0.20;;;;;;;11.03;100.00;102172.31;5112531;28;20020;-44
2023/10/01 04:40:48;;;;;;;0.20;0.20;;;;;;;11.03;100.00;102169.75;5112857;28;20031;-42
2023/10/01 04:43:19;;;;;;;0.20;0.20;;;;;;;11.09;100.00;102172.63;5111879;28;20024;-40
2023/10/01 04:45:45;;;;;;;0.20;0.20;;;;;;;11.07;100.00;102179.38;5112942;28;20107;-43
2023/10/01 04:48:45;;;;;;;0.10;0.10;;;;;;;11.01;100.00;102174.81;5112199;28;20481;-40
2023/10/01 04:51:07;;;;;;;0.20;0.20;;;;;;;11.02;100.00;102176.56;5107635;28;20071;-43
2023/10/01 04:53:33;;;;;;;0.20;0.20;;;;;;;11.05;100.00;102175.84;5112458;28;20016;-42
2023/10/01 04:56:05;;;;;;;0.20;0.20;;;;;;;11.02;100.00;102181.72;5111941;28;20059;-44
2023/10/01 04:58:37;;;;;;;0.20;0.20;;;;;;;11.07;100.00;102186.25;5112124;28;20394;-44
2023/10/01 05:01:11;;;;;;;0.10;0.10;;;;;;;11.03;100.00;102190.38;5112643;28;20086;-43
2023/10/01 05:03:39;;;;;;;0.20;0.20;;;;;;;11.03;100.00;102187.78;5111701;28;20391;-43
2023/10/01 05:06:18;;;;;;;0.20;0.20;;;;;;;11.00;100.00;102177.31;5112575;28;20026;-42
2023/10/01 05:08:43;;;;;;;0.10;0.10;;;;;;;10.97;100.00;102179.75;5115749;28;20031;-43
2023/10/01 05:11:11;;;;;;;0.17;0.17;;;;;;;10.94;100.00;102172.75;5115350;28;20031;-44
2023/10/01 05:13:40;;;;;;;;;;;;;;;11.03;100.00;102172.31;5116640;28;20177;-44
2023/10/01 05:16:06;;;;;;;0.20;0.20;;;;;;;10.93;100.00;102175.25;5115927;28;19918;-45
2023/10/01 05:18:37;;;;;;;0.20;0.20;;;;;;;10.93;100.00;102175.25;5114947;28;20505;-44
2023/10/01 05:21:09;;;;;;;0.10;0.10;;;;;;;10.91;100.00;102182.91;5116325;28;20107;-41
2023/10/01 05:23:36;;;;;;;0.20;0.20;;;;;;;10.88;100.00;102190.50;5114972;28;20031;-45
2023/10/01 05:26:03;;;;;;;0.20;0.20;;;;;;;10.87;100.00;102187.03;5115779;28;20064;-44
2023/10/01 05:28:31;;;;;;;0.20;0.20;;;;;;;10.86;100.00;102193.00;5115490;28;20058;-44
2023/10/01 05:31:12;;;;;;;0.20;0.20;;;;;;;10.84;100.00;102197.19;5115051;28;20028;-40
2023/10/01 05:33:46;;;;;;;0.20;0.20;;;;;;;10.83;100.00;102198.00;5115920;28;20027;-45
2023/10/01 05:36:16;;;;;;;0.17;0.17;;;;;;;10.83;100.00;102195.44;5115533;28;20030;-40
2023/10/01 05:38:43;;;;;;;0.20;0.20;;;;;;;10.83;100.00;102192.84;5114901;28;20027;-41
2023/10/01 05:41:09;;;;;;;0.20;0.20;;;;;;;10.87;100.00;102196.44;5115629;28;20031;-40
2023/10/01 05:43:38;;;;;;;0.20;0.20;;;;;;;10.89;100.00;102214.59;5115114;28;20405;-41
2023/10/01 05:46:08;;;;;;;0.17;0.17;;;;;;;10.85;100.00;102210.97;5114791;28;20028;-40
2023/10/01 05:48:35;;;;;;;0.20;0.20;;;;;;;10.82;100.00;102205.66;5115115;28;20027;-42
2023/10/01 05:51:01;;;;;;;0.10;0.10;;;;;;;10.87;100.00;102201.59;5115476;28;20076;-42
2023/10/01 05:53:28;;;;;;;0.20;0.20;;;;;;;10.89;100.00;102199.13;5114263;28;20061;-43
2023/10/01 05:55:54;;;;;;;0.20;0.20;;;;;;;10.91;100.00;102189.75;5115872;28;20028;-41
2023/10/01 05:58:21;;;;;;;0.20;0.20;;;;;;;10.93;100.00;102191.59;5114837;28;20061;-41
2023/10/01 06:00:57;;;;;;;0.10;0.10;;;;;;;10.95;100.00;102194.25;5114493;28;20094;-43
2023/10/01 06:03:25;;;;;;;0.20;0.20;;;;;;;10.98;100.00;102194.41;5114907;28;20081;-40
2023/10/01 06:05:59;;;;;;;0.20;0.20;;;;;;;10.99;100.00;102201.34;5114403;28;20123;-40
2023/10/01 06:08:37;;;;;;;0.20;0.20;;;;;;;11.03;100.00;102190.38;5114924;28;20071;-42
2023/10/01 06:11:05;;;;;;;0.10;0.10;;;;;;;11.07;100.00;102194.88;5115318;28;20110;-40
2023/10/01 06:13:33;;;;;;;0.15;0.15;;;;;;;11.13;100.00;102196.84;5114008;28;20030;-42
2023/10/01 06:16:11;;;;;;;0.10;0.10;;;;;;;11.14;100.00;102202.13;5115203;28;20041;-41
2023/10/01 06:18:49;;;;;;;0.10;0.10;;;;;;;11.20;100.00;102201.53;5114994;28;20028;-40
2023/10/01 06:21:16;;;;;;;0.20;0.20;;;;;;;11.23;100.00;102200.78;5113939;28;20031;-40
2023/10/01 06:23:50;;;;;;;0.20;0.20;;;;;;;11.27;100.00;102197.53;5115332;28;20098;-40
2023/10/01 06:26:33;;;;;;;0.20;0.20;;;;;;;11.34;100.00;102204.78;5114538;28;20378;-40
2023/10/01 06:29:02;;;;;;;0.17;0.17;;;;;;;11.35;100.00;102197.09;5114338;28;20031;-40
2023/10/01 06:31:28;;;;;;;0.20;0.20;;;;;;;11.39;100.00;102203.31;5114495;28;20032;-40
2023/10/01 06:33:53;;;;;;;0.20;0.20;;;;;;;11.45;100.00;102203.59;5113724;28;20020;-40
2023/10/01 06:36:23;;;;;;;0.20;0.20;;;;;;;11.51;100.00;102209.03;5114348;28;20015;-41
2023/10/01 06:38:54;;;;;;;0.20;0.20;;;;;;;11.56;100.00;102203.22;5114515;28;20128;-41
2023/10/01 06:41:25;;;;;;;0.10;0.10;;;;;;;11.63;100.00;102194.94;5113360;28;20035;-41
2023/10/01 06:43:55;;;;;;;0.10;0.10;;;;;;;11.67;100.00;102189.09;5114687;28;20023;-41
2023/10/01 06:46:23;;;;;;;0.20;0.20;;;;;;;11.76;100.00;102189.56;5114776;28;20028;-41
2023/10/01 06:48:50;;;;;;;0.20;0.20;;;;;;;11.85;100.00;102192.56;5113614;28;20023;-41
2023/10/01 06:51:19;;;;;;;0.10;0.10;;;;;;;11.94;100.00;102191.19;5114168;28;20031;-41
2023/10/01 06:53:45;;;;;;;0.15;0.15;;;;;;;12.00;100.00;102186.34;5114115;28;20598;-41
2023/10/01 06:56:17;;;;;;;0.20;0.20;;;;;;;12.10;100.00;102190.25;5113363;28;20530;-40
2023/10/01 06:59:03;;;;;;;0.17;0.17;;;;;;;12.19;100.00;102186.34;5114224;28;20072;-42
2023/10/01 07:01:35;;;;;;;0.10;0.10;;;;;;;12.30;100.00;102193.69;5113621;28;20534;-42
2023/10/01 07:04:06;;;;;;;0.10;0.10;;;;;;;12.40;100.00;102188.09;5113105;28;20540;-44
2023/10/01 07:06:34;;;;;;;0.10;0.10;;;;;;;12.49;100.00;102185.91;5113450;28;20024;-44
2023/10/01 07:09:00;;;;;;;0.10;0.10;;;;;;;12.61;100.00;102187.25;5113438;28;20102;-42
2023/10/01 07:11:28;;;;;;;0.10;0.10;;;;;;;12.70;100.00;102190.25;5113608;28;20193;-42
2023/10/01 07:13:55;;;;;;;0.10;0.10;;;;;;;12.82;100.00;102189.88;5114067;28;20030;-45
2023/10/01 07:16:35;;;;;;;0.20;0.20;;;;;;;12.91;100.00;102190.28;5112707;28;20032;-44
2023/10/01 07:19:04;;;;;;;0.17;0.17;;;;;;;13.01;100.00;102188.94;5113658;28;20344;-42
2023/10/01 07:21:29;;;;;;;0.10;0.10;;;;;;;13.17;100.00;102187.88;5113452;28;20026;-42
2023/10/01 07:23:55;;;;;;;0.10;0.10;;;;;;;13.27;100.00;102196.88;5113208;28;20020;-42
2023/10/01 07:26:22;;;;;;;0.20;0.20;;;;;;;13.36;100.00;102201.53;5113348;28;20390;-41
2023/10/01 07:28:55;;;;;;;0.10;0.10;;;;;;;13.44;100.00;102202.75;5113440;28;20031;-44
2023/10/01 07:31:22;;;;;;;0.10;0.10;;;;;;;13.54;100.00;102204.88;5111953;28;20026;-43
2023/10/01 07:33:47;;;;;;;0.10;0.10;;;;;;;13.67;100.00;102201.06;5113649;28;20076;-44
2023/10/01 07:36:17;;;;;;;0.10;0.10;;;;;;;13.78;100.00;102201.50;5113258;28;20020;-43
2023/10/01 07:38:48;;;;;;;0.10;0.10;;;;;;;13.88;100.00;102195.84;5112705;28;20058;-43
2023/10/01 07:41:18;;;;;;;0.10;0.10;;;;;;;14.05;100.00;102209.41;5113150;28;20047;-43
2023/10/01 07:43:43;;;;;;;0.10;0.10;;;;;;;14.18;100.00;102199.47;5113251;28;20020;-43
2023/10/01 07:46:09;;;;;;;0.20;0.20;;;;;;;14.30;100.00;102212.91;5112333;28;20028;-43
2023/10/01 07:48:38;;;;;;;0.10;0.10;;;;;;;14.41;100.00;102213.28;5112856;28;20074;-43
2023/10/01 07:51:04;;;;;;;0.10;0.10;;;;;;;14.51;100.00;102219.69;5112537;28;20024;-43
2023/10/01 07:53:33;;;;;;;0.10;0.10;;;;;;;14.58;100.00;102224.28;5112735;28;20020;-43
2023/10/01 07:56:15;;;;;;;0.10;0.10;;;;;;;14.73;100.00;102226.53;5113180;28;20024;-44
2023/10/01 07:58:47;;;;;;;0.10;0.10;;;;;;;14.82;100.00;102219.06;5112374;28;20039;-43
2023/10/01 08:03:57;;;;;;;0.10;0.10;;;;;;;15.12;100.00;102216.63;5113269;28;20039;-43
2023/10/01 08:06:34;;;;;;;0.10;0.10;;;;;;;15.23;100.00;102216.97;5112061;28;20023;-42
2023/10/01 08:09:08;;;;;;;0.10;0.10;;;;;;;15.36;100.00;102215.63;5112879;28;20031;-41
2023/10/01 08:14:20;;;;;;;0.10;0.10;;;;;;;15.63;100.00;102219.94;5112183;28;20096;-43
2023/10/01 08:16:49;;;;;;;0.00;0.00;;;;;;;15.73;100.00;102213.31;5112921;28;20019;-43
2023/10/01 08:19:20;;;;;;;0.10;0.10;;;;;;;15.89;100.00;102225.94;5111726;28;20027;-42
2023/10/01 08:21:53;;;;;;;0.10;0.10;;;;;;;15.91;100.00;102221.69;5113120;28;20020;-41
2023/10/01 08:24:33;;;;;;;0.10;0.10;;;;;;;15.98;100.00;102227.94;5112648;28;20505;-42
2023/10/01 08:27:03;;;;;;;0.10;0.10;;;;;;;16.00;100.00;102231.47;5112033;28;20494;-43
2023/10/01 08:32:14;;;;;;;0.10;0.10;;;;;;;16.34;100.00;102228.97;5112553;28;20128;-44
2023/10/01 08:37:23;;;;;;;0.10;0.10;;;;;;;16.55;100.00;102241.66;5112974;28;20092;-45
2023/10/01 08:39:53;;;;;;;0.10;0.10;;;;;;;16.69;100.00;102237.72;5113172;28;20530;-43
2023/10/01 08:42:19;;;;;;;0.10;0.10;;;;;;;16.79;100.00;102233.66;5112593;28;20038;-44
2023/10/01 08:44:52;;;;;;;0.10;0.10;;;;;;;16.88;100.00;102230.41;5116763;28;20503;-44
2023/10/01 08:47:25;;;;;;;0.10;0.10;;;;;;;16.93;100.00;102237.50;5116069;28;20039;-43
2023/10/01 08:49:53;;;;;;;0.10;0.10;;;;;;;17.05;100.00;102238.66;5116809;28;20047;-43
2023/10/01 08:52:25;;;;;;;0.10;0.10;;;;;;;17.17;100.00;102236.38;5116455;28;20080;-47
2023/10/01 08:54:53;;;;;;;0.10;0.10;;;;;;;17.32;100.00;102233.25;5115904;28;20039;-46
2023/10/01 08:57:28;;;;;;;0.10;0.10;;;;;;;17.50;100.00;102237.16;5116124;28;20052;-45
2023/10/01 08:59:53;;;;;;;0.10;0.10;;;;;;;17.68;100.00;102236.69;5116330;28;20352;-46
2023/10/01 09:02:19;;;;;;;0.20;0.20;;;;;;;17.81;100.00;102238.72;5115289;28;20535;-42
2023/10/01 09:04:46;;;;;;;0.00;0.00;;;;;;;18.15;100.00;102234.22;5116360;28;20020;-45
2023/10/01 09:07:18;;;;;;;0.03;0.03;;;;;;;18.29;99.31;102237.13;5115870;28;20023;-45
2023/10/01 09:10:17;;;;;;;0.10;0.10;;;;;;;18.47;99.37;102238.34;5115562;28;20028;-42
2023/10/01 09:12:46;;;;;;;0.00;0.00;;;;;;;18.70;97.53;102239.63;5116091;28;20028;-44
2023/10/01 09:15:27;;;;;;;0.00;0.00;;;;;;;18.63;96.08;102234.28;5115733;28;20050;-43
2023/10/01 09:17:56;;;;;;;0.10;0.10;;;;;;;18.63;94.65;102232.56;5116072;28;20028;-44
2023/10/01 09:20:39;;;;;;;0.10;0.10;;;;;;;18.76;97.26;102226.69;5115827;28;20069;-45
2023/10/01 09:23:05;;;;;;;0.00;0.00;;;;;;;19.12;94.43;102227.34;5115398;28;20106;-42
2023/10/01 09:25:34;;;;;;;0.00;0.00;;;;;;;19.23;92.93;102224.88;5115520;28;20028;-42
2023/10/01 09:28:04;;;;;;;0.10;0.10;;;;;;;19.31;92.48;102223.25;5115660;28;20031;-44
2023/10/01 09:30:35;;;;;;;0.00;0.00;;;;;;;19.63;90.37;102215.00;5114725;28;20031;-44
2023/10/01 09:33:14;;;;;;;0.00;0.00;;;;;;;19.86;88.88;102211.88;5115870;28;20032;-47
2023/10/01 09:35:56;;;;;;;0.00;0.00;;;;;;;20.20;90.13;102212.25;5115777;28;20020;-44
2023/10/01 09:38:27;;;;;;;0.00;0.00;;;;;;;20.13;87.15;102206.09;5114392;28;20036;-45
2023/10/01 09:40:54;;;;;;;0.00;0.00;;;;;;;20.20;86.12;102210.50;5115914;28;20023;-45
2023/10/01 09:43:29;;;;;;;0.00;0.00;;;;;;;20.40;84.88;102217.72;5115284;28;20395;-43
2023/10/01 09:46:00;;;;;;;0.00;0.00;;;;;;;20.82;84.43;102221.66;5114757;28;20034;-46
2023/10/01 09:48:30;;;;;;;0.00;0.00;;;;;;;21.07;83.05;102219.25;5115182;28;20059;-43
2023/10/01 09:51:13;;;;;;;0.00;0.00;;;;;;;21.33;83.44;102222.06;5114563;28;20035;-46
2023/10/01 09:53:51;;;;;;;0.00;0.00;;;;;;;21.60;78.63;102207.38;5115201;28;20399;-46
2023/10/01 09:56:27;;;;;;;0.00;0.00;;;;;;;21.87;77.37;102214.50;5115001;28;20023;-45
2023/10/01 09:58:59;;;;;;;0.00;0.00;;;;;;;21.86;75.01;102217.13;5114575;28;20110;-46
2023/10/01 10:01:30;;;;;;;0.00;0.00;;;;;;;22.03;75.63;102212.81;5114955;28;20027;-45
2023/10/01 10:03:59;;;;;;;0.00;0.00;;;;;;;21.98;76.52;102222.41;5115182;28;20037;-43
2023/10/01 10:06:25;;;;;;;0.00;0.00;;;;;;;22.24;73.71;102208.50;5114291;28;20077;-48
2023/10/01 10:09:03;;;;;;;0.00;0.00;;;;;;;22.35;71.56;102219.06;5114923;28;20039;-43
2023/10/01 10:11:40;;;;;;;0.00;0.00;;;;;;;22.54;70.88;102225.22;5114915;28;20022;-46
2023/10/01 10:14:27;;;;;;;0.00;0.00;;;;;;;23.13;72.63;102220.00;5114340;28;20364;-42
2023/10/01 10:17:19;;;;;;;0.00;0.00;;;;;;;22.81;68.25;102216.53;5115194;28;20035;-43
2023/10/01 10:20:24;;;;;;;0.00;0.00;;;;;;;23.01;73.54;102213.88;5114207;28;20027;-46
2023/10/01 10:23:29;;;;;;;0.00;0.00;;;;;;;23.48;69.16;102216.47;5115082;28;20057;-47
2023/10/01 10:26:13;;;;;;;0.00;0.00;;;;;;;23.72;68.78;102212.00;5114195;28;20028;-46
2023/10/01 10:28:55;;;;;;;0.00;0.00;;;;;;;24.10;68.06;102211.00;5114617;28;20381;-47
2023/10/01 10:31:32;;;;;;;0.00;0.00;;;;;;;24.21;65.19;102206.56;5114573;28;20023;-45
2023/10/01 10:34:21;;;;;;;;;;;;;;;24.72;64.18;102205.34;5114306;28;20064;-45
2023/10/01 10:37:00;;;;;;;0.00;0.00;;;;;;;24.53;59.68;102194.03;5114493;28;19918;-46
2023/10/01 10:40:02;;;;;;;0.00;0.00;;;;;;;24.18;62.75;102201.28;5114237;28;20070;-47
2023/10/01 10:42:30;;;;;;;0.00;0.00;;;;;;;24.26;60.69;102201.25;5114187;28;20039;-46
2023/10/01 10:45:20;;;;;;;0.00;0.00;;;;;;;24.29;60.47;102199.47;5114356;28;20124;-43
2023/10/01 10:48:03;;;;;;;0.00;0.00;;;;;;;24.25;61.70;102197.75;5113635;28;20031;-42
2023/10/01 10:50:53;;;;;;;0.00;0.00;;;;;;;24.45;60.52;102196.72;5114098;28;20031;-47
2023/10/01 10:53:42;;;;;;;0.00;0.00;;;;;;;24.52;62.64;102195.81;5113888;28;20095;-44
2023/10/01 10:56:14;;;;;;;0.00;0.00;;;;;;;24.97;58.33;102199.00;5113216;28;20024;-46
2023/10/01 10:59:01;;;;;;;0.00;0.00;;;;;;;24.92;58.88;102194.63;5114361;28;20040;-45
2023/10/01 11:01:44;;;;;;;0.00;0.00;;;;;;;24.51;56.84;102194.06;5112986;28;20066;-45
2023/10/01 11:04:12;;;;;;;0.00;0.00;;;;;;;24.63;56.11;102194.00;5113704;28;20475;-45
2023/10/01 11:06:44;;;;;;;0.00;0.00;;;;;;;24.45;57.17;102194.09;5113452;28;20032;-44
2023/10/01 11:09:23;;;;;;;0.00;0.00;;;;;;;24.73;58.01;102188.66;5113339;28;20112;-46
2023/10/01 11:11:49;;;;;;;0.00;0.00;;;;;;;25.23;57.17;102186.41;5113875;28;20024;-47
2023/10/01 11:14:17;;;;;;;0.00;0.00;;;;;;;24.84;55.63;102186.78;5113410;28;20024;-45
2023/10/01 11:16:47;;;;;;;0.00;0.00;;;;;;;24.88;55.45;102179.72;5113163;28;20034;-45
2023/10/01 11:19:14;;;;;;;0.00;0.00;;;;;;;24.74;57.05;102179.84;5113619;28;20015;-48
2023/10/01 11:22:00;;;;;;;0.00;0.00;;;;;;;25.12;56.15;102166.28;5113815;28;20028;-46
2023/10/01 11:24:29;;;;;;;0.00;0.00;;;;;;;25.19;57.15;102167.13;5112561;28;20027;-46
2023/10/01 11:27:20;;;;;;;0.00;0.00;;;;;;;25.67;55.58;102163.97;5113426;28;20692;-47
2023/10/01 11:29:57;;;;;;;0.00;0.00;;;;;;;25.30;53.02;102164.34;5112564;28;20028;-45
2023/10/01 11:32:58;;;;;;;0.00;0.00;;;;;;;25.47;55.35;102162.44;5113392;28;20030;-47
2023/10/01 11:35:31;;;;;;;0.00;0.00;;;;;;;25.33;53.33;102160.81;5113156;28;20072;-48
2023/10/01 11:38:19;;;;;;;0.00;0.00;;;;;;;25.92;53.77;102163.63;5112836;28;20038;-46
2023/10/01 11:44:00;;;;;;;0.00;0.00;;;;;;;25.80;52.05;102156.75;5112570;28;20671;-48
2023/10/01 11:46:34;;;;;;;0.00;0.00;;;;;;;25.52;51.95;102151.81;5113225;28;20023;-46
2023/10/01 11:49:06;;;;;;;0.00;0.00;;;;;;;26.00;52.25;102155.59;5113255;28;20043;-46
2023/10/01 11:51:45;;;;;;;0.00;0.00;;;;;;;26.11;51.46;102154.56;5112179;28;20555;-47
2023/10/01 11:54:13;;;;;;;0.00;0.00;;;;;;;26.11;51.31;102157.22;5113617;28;20035;-45
2023/10/01 11:57:04;;;;;;;0.00;0.00;;;;;;;26.12;51.06;102155.47;5113209;28;20043;-46
2023/10/01 11:59:31;;;;;;;0.00;0.00;;;;;;;25.53;49.76;102143.00;5112191;28;20035;-45
2023/10/01 12:02:15;;;;;;;;;;;;;;;26.02;51.29;102152.03;5113434;28;20387;-44
2023/10/01 12:04:44;;;;;;;0.00;0.00;;;;;;;25.67;51.58;102131.38;5112669;28;19912;-43
2023/10/01 12:07:18;;;;;;;0.00;0.00;;;;;;;25.82;51.89;102135.59;5113406;28;20046;-47
2023/10/01 12:09:51;;;;;;;0.00;0.00;;;;;;;25.69;51.03;102126.97;5113398;28;20028;-48